createdAt,value
2018-08-24T02:30:44.656Z,99.90
2018-08-24T03:07:44.740Z,99.90
2018-08-24T03:10:12.977Z,99.90
2018-08-24T03:12:41.228Z,99.90
2018-08-24T03:15:09.585Z,99.90
2018-08-24T03:17:43.161Z,99.90
2018-08-24T03:20:11.825Z,99.90
2018-08-24T03:22:40.077Z,99.90
2018-08-24T03:25:08.313Z,99.90
2018-08-24T03:27:36.554Z,99.90
2018-08-24T03:30:04.796Z,99.90
2018-08-24T03:32:33.060Z,99.90
2018-08-24T03:35:01.277Z,99.90
2018-08-24T03:37:29.505Z,99.90
2018-08-24T03:39:57.715Z,99.90
2018-08-24T03:42:25.968Z,99.90
2018-08-24T03:44:54.270Z,99.90
2018-08-24T03:47:22.554Z,99.90
2018-08-24T03:49:50.813Z,99.90
2018-08-24T03:52:19.117Z,99.90
2018-08-24T04:39:18.221Z,99.90
2018-08-24T04:41:46.459Z,99.90
2018-08-24T04:44:14.802Z,99.90
2018-08-24T04:46:43.073Z,99.90
2018-08-24T04:49:12.317Z,99.90
2018-08-24T05:36:05.980Z,99.90
2018-08-24T05:38:34.214Z,99.90
2018-08-24T05:41:02.407Z,99.90
2018-08-24T05:43:30.678Z,99.90
2018-08-24T05:45:58.907Z,99.90
2018-08-24T05:48:27.115Z,99.90
2018-08-24T05:50:55.351Z,99.90
2018-08-24T05:53:23.566Z,99.90
2018-08-24T05:55:51.788Z,99.90
2018-08-24T05:58:20.016Z,99.90
2018-08-24T06:35:33.116Z,99.90
2018-08-24T06:38:01.374Z,99.90
2018-08-24T06:40:29.725Z,99.90
2018-08-24T08:37:53.270Z,99.90
2018-08-24T08:40:21.584Z,99.90
2018-08-24T08:42:49.877Z,99.90
2018-08-24T08:45:18.094Z,99.90
2018-08-24T08:47:46.294Z,99.90
2018-08-24T08:50:14.491Z,98.90
2018-08-24T08:52:42.678Z,99.60
2018-08-24T08:55:10.908Z,98.30
2018-08-24T08:57:39.162Z,98.50
2018-08-24T09:00:07.398Z,98.80
2018-08-24T09:02:35.674Z,98.80
2018-08-24T09:05:04.046Z,97.70
2018-08-24T09:20:03.127Z,97.10
2018-08-24T09:30:13.858Z,92.90
2018-08-24T09:32:42.220Z,90.90
2018-08-24T09:45:04.543Z,89.10
2018-08-24T09:52:40.220Z,86.40
2018-08-24T09:55:08.456Z,86.40
2018-08-24T10:06:10.791Z,85.50
2018-08-24T10:38:22.209Z,78.40
2018-08-24T10:40:50.515Z,73.20
2018-08-24T10:43:18.687Z,73.50
2018-08-24T10:45:46.891Z,71.40
2018-08-24T10:48:15.840Z,69.10
2018-08-24T10:50:44.070Z,66.80
2018-08-24T10:55:40.344Z,64.40
2018-08-24T10:58:08.494Z,68.50
2018-08-24T11:00:36.708Z,67.10
2018-08-24T11:03:05.049Z,66.10
2018-08-24T11:08:01.269Z,66.70
2018-08-24T11:10:29.564Z,66.00
2018-08-24T11:12:57.824Z,67.70
2018-08-24T11:15:26.205Z,64.70
2018-08-24T11:17:59.805Z,64.30
2018-08-24T11:20:28.041Z,64.70
2018-08-24T11:22:56.270Z,61.60
2018-08-24T11:25:24.537Z,59.40
2018-08-24T12:30:09.940Z,59.20
2018-08-24T12:32:38.171Z,67.50
2018-08-24T13:02:24.864Z,66.50
2018-08-24T13:07:21.132Z,62.80
2018-08-24T13:09:49.351Z,60.40
2018-08-24T13:12:17.907Z,59.60
2018-08-24T13:14:46.226Z,58.60
2018-08-24T13:17:14.492Z,59.30
2018-08-24T13:19:42.744Z,60.20
2018-08-24T13:46:51.279Z,60.00
2018-08-24T13:49:19.508Z,65.90
2018-08-24T13:51:47.765Z,66.10
2018-08-24T13:54:16.352Z,67.10
2018-08-24T14:04:08.837Z,66.20
2018-08-24T14:06:37.137Z,66.20
2018-08-24T14:16:30.737Z,64.60
2018-08-24T14:18:58.985Z,65.10
2018-08-24T14:21:27.262Z,64.90
2018-08-24T15:15:45.906Z,66.30
2018-08-24T16:02:39.657Z,68.80
2018-08-24T16:05:07.878Z,75.20
2018-08-24T16:07:38.117Z,74.10
2018-08-24T16:10:07.304Z,73.70
2018-08-24T16:12:35.770Z,73.50
2018-08-24T16:15:04.006Z,73.90
2018-08-24T16:17:32.273Z,74.00
2018-08-24T16:34:51.861Z,75.50
2018-08-24T16:37:20.121Z,78.60
2018-08-24T16:39:48.458Z,76.90
2018-08-24T16:42:17.562Z,77.40
2018-08-24T17:39:08.600Z,77.60
2018-08-24T17:41:36.838Z,79.60
2018-08-24T17:44:05.139Z,79.50
2018-08-24T17:46:33.407Z,79.30
2018-08-24T17:49:01.843Z,79.90
2018-08-24T17:51:30.071Z,79.50
2018-08-24T17:53:58.284Z,80.10
2018-08-24T17:56:26.547Z,80.00
2018-08-24T17:58:54.803Z,79.60
2018-08-24T18:01:23.036Z,79.40
2018-08-24T18:03:51.272Z,79.20
2018-08-24T18:06:19.532Z,79.10
2018-08-24T18:08:47.751Z,79.20
2018-08-24T18:11:16.031Z,79.70
2018-08-24T18:13:44.271Z,79.10
2018-08-24T18:16:12.788Z,79.10
2018-08-24T18:18:40.993Z,79.20
2018-08-24T18:21:09.848Z,79.50
2018-08-24T18:23:40.892Z,79.60
2018-08-24T18:26:09.899Z,78.90
2018-08-24T18:28:38.187Z,78.00
2018-08-24T18:38:31.567Z,78.30
2018-08-24T18:40:59.853Z,79.10
2018-08-24T18:43:28.036Z,79.30
2018-08-24T18:45:56.288Z,79.20
2018-08-24T18:48:24.623Z,79.60
2018-08-24T18:50:52.848Z,79.60
2018-08-24T18:53:21.092Z,79.40
2018-08-24T18:55:49.314Z,79.30
2018-08-24T18:58:18.459Z,79.30
2018-08-24T19:00:46.689Z,79.60
2018-08-24T19:03:14.918Z,79.50
2018-08-24T19:05:43.188Z,79.80
2018-08-24T19:08:12.416Z,79.90
2018-08-24T19:10:45.969Z,79.70
2018-08-24T19:15:44.264Z,79.70
2018-08-24T20:20:49.157Z,79.30
2018-08-24T20:23:17.409Z,84.80
2018-08-24T20:40:33.770Z,85.00
2018-08-24T20:43:01.986Z,86.50
2018-08-24T23:11:03.820Z,87.00
2018-08-24T23:13:35.052Z,91.10
2018-08-24T23:16:03.277Z,91.00
2018-08-24T23:18:31.497Z,91.00
2018-08-24T23:20:59.736Z,90.90
2018-08-24T23:23:27.997Z,91.00
2018-08-24T23:25:56.264Z,91.10
2018-08-24T23:28:24.546Z,90.70
2018-08-24T23:30:52.797Z,90.90
2018-08-24T23:33:21.048Z,91.20
2018-08-24T23:35:49.300Z,91.40
2018-08-24T23:38:17.629Z,91.40
